createdAt,value
2022-10-10T00:02:37.299Z,7.74
2022-10-10T00:08:39.643Z,7.62
2022-10-10T00:14:41.536Z,7.46
2022-10-10T00:20:43.556Z,7.31
2022-10-10T00:26:45.511Z,7.21
2022-10-10T00:32:47.715Z,7.47
2022-10-10T00:38:49.976Z,7.36
2022-10-10T00:45:22.476Z,7.38
2022-10-10T00:51:24.454Z,7.31
2022-10-10T00:57:28.778Z,7.31
2022-10-10T01:03:31.041Z,7.32
2022-10-10T01:09:35.706Z,7.27
2022-10-10T01:21:57.404Z,7.18
2022-10-10T01:28:22.589Z,7.21
2022-10-10T01:35:00.550Z,7.19
2022-10-10T01:41:29.486Z,7.10
2022-10-10T01:47:31.419Z,6.95
2022-10-10T01:54:04.030Z,6.90
2022-10-10T02:00:14.252Z,6.74
2022-10-10T02:06:21.841Z,6.64
2022-10-10T02:12:25.963Z,6.68
2022-10-10T02:18:33.131Z,6.66
2022-10-10T02:24:35.352Z,6.58
2022-10-10T02:30:43.013Z,6.61
2022-10-10T02:36:55.211Z,6.59
2022-10-10T02:43:00.520Z,6.99
2022-10-10T02:49:02.594Z,6.89
2022-10-10T02:55:05.141Z,7.06
2022-10-10T03:01:07.180Z,7.02
2022-10-10T03:07:09.783Z,7.32
2022-10-10T03:13:11.705Z,7.40
2022-10-10T03:19:13.591Z,7.21
2022-10-10T03:25:15.605Z,7.07
2022-10-10T03:31:17.743Z,6.90
2022-10-10T03:37:19.700Z,7.22
2022-10-10T03:43:21.847Z,6.79
2022-10-10T03:49:23.735Z,6.72
2022-10-10T03:55:25.678Z,6.76
2022-10-10T04:01:28.250Z,6.66
2022-10-10T04:07:30.920Z,6.56
2022-10-10T04:13:32.817Z,6.55
2022-10-10T04:19:34.749Z,6.58
2022-10-10T04:25:36.680Z,6.50
2022-10-10T04:31:38.641Z,6.59
2022-10-10T04:37:40.793Z,6.45
2022-10-10T04:43:42.687Z,6.62
2022-10-10T04:49:44.828Z,6.45
2022-10-10T04:55:46.985Z,6.69
2022-10-10T05:01:52.579Z,6.69
2022-10-10T05:07:55.609Z,6.70
2022-10-10T05:13:57.716Z,6.73
2022-10-10T05:19:59.666Z,6.84
2022-10-10T05:26:01.570Z,7.12
2022-10-10T05:32:07.701Z,7.06
2022-10-10T05:38:11.948Z,6.87
2022-10-10T05:44:13.877Z,6.83
2022-10-10T05:50:41.144Z,6.95
2022-10-10T05:56:43.077Z,7.15
2022-10-10T06:02:45.023Z,7.43
2022-10-10T06:08:46.915Z,7.54
2022-10-10T06:14:48.789Z,7.59
2022-10-10T06:20:51.040Z,7.78
2022-10-10T06:26:52.951Z,7.73
2022-10-10T06:32:57.101Z,7.65
2022-10-10T06:38:59.308Z,7.71
2022-10-10T06:45:01.224Z,7.83
2022-10-10T06:51:07.829Z,7.97
2022-10-10T06:57:09.799Z,8.02
2022-10-10T07:03:12.716Z,8.45
2022-10-10T07:09:15.042Z,8.31
2022-10-10T07:15:17.155Z,8.36
2022-10-10T07:21:19.058Z,8.52
2022-10-10T07:27:20.978Z,8.69
2022-10-10T07:33:22.864Z,8.69
2022-10-10T07:39:26.411Z,8.80
2022-10-10T07:45:28.303Z,8.96
2022-10-10T07:51:30.236Z,9.04
2022-10-10T07:57:35.215Z,9.16
2022-10-10T08:03:37.889Z,9.29
2022-10-10T08:09:39.955Z,9.50
2022-10-10T08:15:43.477Z,9.71
2022-10-10T08:21:45.402Z,9.89
2022-10-10T08:27:47.315Z,9.99
2022-10-10T08:33:51.373Z,10.16
2022-10-10T08:39:53.283Z,10.43
2022-10-10T08:45:58.681Z,10.78
2022-10-10T09:06:33.790Z,11.10
2022-10-10T09:18:55.813Z,11.63
2022-10-10T09:25:16.462Z,11.76
2022-10-10T09:31:25.228Z,11.99
2022-10-10T09:37:46.834Z,12.33
2022-10-10T09:43:57.888Z,13.00
2022-10-10T09:49:59.849Z,14.65
2022-10-10T09:56:04.375Z,16.54
2022-10-10T10:02:17.845Z,15.83
2022-10-10T10:08:29.482Z,15.47
2022-10-10T10:14:37.578Z,15.23
2022-10-10T10:20:47.241Z,14.98
2022-10-10T10:26:49.757Z,15.24
2022-10-10T10:33:19.575Z,15.35
2022-10-10T10:39:45.568Z,15.93
2022-10-10T10:45:53.077Z,16.80
2022-10-10T10:52:32.383Z,18.65
2022-10-10T10:59:31.515Z,19.69
2022-10-10T11:05:41.741Z,22.20
2022-10-10T11:11:51.559Z,23.45
2022-10-10T11:18:10.754Z,24.60
2022-10-10T11:24:25.653Z,25.37
2022-10-10T11:31:22.106Z,26.15
2022-10-10T11:37:31.006Z,27.98
2022-10-10T11:44:24.073Z,27.66
2022-10-10T11:50:34.985Z,26.51
2022-10-10T11:56:45.321Z,26.43
2022-10-10T12:02:48.208Z,27.77
2022-10-10T12:09:16.536Z,26.35
2022-10-10T12:15:41.280Z,26.19
2022-10-10T12:22:01.191Z,25.32
2022-10-10T12:28:05.996Z,26.79
2022-10-10T12:34:15.075Z,26.89
2022-10-10T12:40:21.779Z,26.90
2022-10-10T12:46:33.017Z,26.80
2022-10-10T12:53:12.006Z,24.93
2022-10-10T12:59:24.722Z,24.67
2022-10-10T13:13:21.172Z,27.41
2022-10-10T13:19:25.379Z,27.93
2022-10-10T13:25:28.033Z,26.79
2022-10-10T13:31:31.442Z,26.49
2022-10-10T13:37:34.330Z,26.48
2022-10-10T13:43:36.312Z,28.00
2022-10-10T13:49:56.810Z,26.56
2022-10-10T13:56:57.998Z,26.38
2022-10-10T14:03:02.892Z,26.04
2022-10-10T14:09:25.359Z,27.45
2022-10-10T14:15:42.887Z,26.58
2022-10-10T14:21:50.287Z,26.18
2022-10-10T14:27:52.223Z,24.70
2022-10-10T14:33:54.680Z,24.01
2022-10-10T14:39:56.942Z,24.38
2022-10-10T14:45:58.965Z,25.72
2022-10-10T14:52:01.676Z,25.59
2022-10-10T14:58:05.343Z,23.66
2022-10-10T15:04:07.289Z,22.68
2022-10-10T15:16:36.026Z,21.32
2022-10-10T15:22:38.155Z,20.87
2022-10-10T15:28:44.854Z,20.55
2022-10-10T15:34:50.557Z,21.79
2022-10-10T15:41:02.681Z,21.18
2022-10-10T15:47:04.966Z,19.89
2022-10-10T15:53:07.233Z,18.81
2022-10-10T15:59:13.573Z,18.32
2022-10-10T16:05:15.666Z,18.67
2022-10-10T16:11:21.178Z,17.57
2022-10-10T16:17:23.962Z,17.25
2022-10-10T16:23:26.384Z,16.59
2022-10-10T16:29:28.471Z,16.36
2022-10-10T16:35:30.437Z,16.13
2022-10-10T16:41:49.683Z,15.88
2022-10-10T16:47:51.744Z,15.73
2022-10-10T16:53:54.718Z,15.63
2022-10-10T16:59:56.629Z,15.59
2022-10-10T17:06:20.397Z,15.42
2022-10-10T17:12:22.428Z,15.45
2022-10-10T17:18:24.415Z,15.46
2022-10-10T17:24:26.435Z,15.35
2022-10-10T17:30:28.496Z,15.40
2022-10-10T17:36:30.521Z,16.10
2022-10-10T17:42:34.535Z,16.17
2022-10-10T17:48:39.793Z,16.43
2022-10-10T17:54:41.766Z,16.57
2022-10-10T18:00:44.185Z,16.52
2022-10-10T18:06:47.199Z,16.85
2022-10-10T18:12:49.317Z,16.61
2022-10-10T18:18:52.158Z,16.38
2022-10-10T18:24:54.267Z,16.32
2022-10-10T18:30:56.211Z,16.55
2022-10-10T18:36:58.471Z,16.52
2022-10-10T18:43:00.484Z,16.47
2022-10-10T18:49:13.796Z,16.40
2022-10-10T18:55:18.353Z,16.34
2022-10-10T19:01:24.818Z,16.12
2022-10-10T19:07:27.280Z,15.96
2022-10-10T19:13:31.888Z,15.95
2022-10-10T19:19:34.000Z,15.76
2022-10-10T19:25:46.300Z,15.74
2022-10-10T19:31:48.199Z,15.56
2022-10-10T19:38:08.695Z,15.31
2022-10-10T19:44:10.778Z,15.25
2022-10-10T19:50:12.893Z,15.26
2022-10-10T19:56:24.358Z,15.31
2022-10-10T20:02:26.401Z,15.06
2022-10-10T20:08:29.187Z,14.91
2022-10-10T20:14:37.933Z,14.96
2022-10-10T20:20:43.465Z,15.04
2022-10-10T20:26:47.508Z,14.83
2022-10-10T20:32:49.492Z,14.64
2022-10-10T20:38:54.062Z,14.50
2022-10-10T20:44:55.997Z,14.26
2022-10-10T20:51:21.556Z,14.18
2022-10-10T20:57:23.529Z,14.16
2022-10-10T21:03:25.673Z,13.95
2022-10-10T21:09:27.737Z,13.70
2022-10-10T21:15:30.749Z,13.75
2022-10-10T21:21:35.203Z,13.50
2022-10-10T21:27:37.057Z,13.41
2022-10-10T21:33:39.222Z,13.28
2022-10-10T21:39:41.128Z,12.90
2022-10-10T21:45:43.765Z,12.59
2022-10-10T21:51:45.990Z,12.59
2022-10-10T21:57:48.295Z,12.23
2022-10-10T22:03:52.464Z,12.23
2022-10-10T22:09:55.421Z,11.89
2022-10-10T22:15:57.754Z,11.68
2022-10-10T22:22:00.230Z,11.55
2022-10-10T22:28:06.072Z,11.36
2022-10-10T22:34:08.408Z,11.22
2022-10-10T22:40:10.994Z,11.25
2022-10-10T22:46:13.124Z,11.17
2022-10-10T22:52:15.067Z,10.85
2022-10-10T22:58:16.974Z,10.80
2022-10-10T23:04:18.903Z,10.83
2022-10-10T23:10:20.800Z,10.29
2022-10-10T23:16:22.949Z,10.23
2022-10-10T23:22:26.733Z,9.96
2022-10-10T23:28:28.860Z,9.85
2022-10-10T23:34:30.867Z,9.73
2022-10-10T23:40:33.898Z,9.38
2022-10-10T23:46:35.841Z,9.21
2022-10-10T23:52:38.431Z,9.04
2022-10-10T23:58:40.374Z,9.28
